sensor_id;sensor_type;location;lat;lon;timestamp;temperature;humidity
50947;DHT22;36955;47.416;7.716;2022-09-17T00:01:22;9.90;99.90
50947;DHT22;36955;47.416;7.716;2022-09-17T00:03:59;9.90;99.90
50947;DHT22;36955;47.416;7.716;2022-09-17T00:06:25;9.90;99.90
50947;DHT22;36955;47.416;7.716;2022-09-17T00:08:52;9.80;99.90
50947;DHT22;36955;47.416;7.716;2022-09-17T00:11:22;9.80;99.90
50947;DHT22;36955;47.416;7.716;2022-09-17T00:13:49;9.80;99.90
50947;DHT22;36955;47.416;7.716;2022-09-17T00:16:35;9.80;99.90
50947;DHT22;36955;47.416;7.716;2022-09-17T00:19:03;9.80;99.90
50947;DHT22;36955;47.416;7.716;2022-09-17T00:21:29;9.80;99.90
50947;DHT22;36955;47.416;7.716;2022-09-17T00:23:57;9.80;99.90
50947;DHT22;36955;47.416;7.716;2022-09-17T00:26:24;9.80;99.90
50947;DHT22;36955;47.416;7.716;2022-09-17T00:28:51;9.80;99.90
50947;DHT22;36955;47.416;7.716;2022-09-17T00:31:18;9.70;99.90
50947;DHT22;36955;47.416;7.716;2022-09-17T00:33:44;9.80;99.90
50947;DHT22;36955;47.416;7.716;2022-09-17T00:36:10;9.70;99.90
50947;DHT22;36955;47.416;7.716;2022-09-17T00:38:36;9.60;99.90
50947;DHT22;36955;47.416;7.716;2022-09-17T00:41:04;9.60;99.90
50947;DHT22;36955;47.416;7.716;2022-09-17T00:43:42;9.60;99.90
50947;DHT22;36955;47.416;7.716;2022-09-17T00:48:57;9.50;99.90
50947;DHT22;36955;47.416;7.716;2022-09-17T00:51:30;9.50;99.90
50947;DHT22;36955;47.416;7.716;2022-09-17T00:53:59;9.40;99.90
50947;DHT22;36955;47.416;7.716;2022-09-17T00:56:27;9.40;99.90
50947;DHT22;36955;47.416;7.716;2022-09-17T00:58:54;9.40;99.90
50947;DHT22;36955;47.416;7.716;2022-09-17T01:01:20;9.40;99.90
50947;DHT22;36955;47.416;7.716;2022-09-17T01:03:46;9.40;99.90
50947;DHT22;36955;47.416;7.716;2022-09-17T01:06:40;9.30;99.90
50947;DHT22;36955;47.416;7.716;2022-09-17T01:09:42;9.30;99.90
50947;DHT22;36955;47.416;7.716;2022-09-17T01:32:27;9.10;99.90
50947;DHT22;36955;47.416;7.716;2022-09-17T01:40:58;9.10;99.90
50947;DHT22;36955;47.416;7.716;2022-09-17T01:43:51;9.00;99.90
50947;DHT22;36955;47.416;7.716;2022-09-17T01:48:57;9.10;99.90
50947;DHT22;36955;47.416;7.716;2022-09-17T01:51:26;9.10;99.90
50947;DHT22;36955;47.416;7.716;2022-09-17T01:54:12;9.10;99.90
50947;DHT22;36955;47.416;7.716;2022-09-17T01:56:51;9.10;99.90
50947;DHT22;36955;47.416;7.716;2022-09-17T02:02:15;8.90;99.90
50947;DHT22;36955;47.416;7.716;2022-09-17T02:04:53;8.80;99.90
50947;DHT22;36955;47.416;7.716;2022-09-17T02:07:21;8.80;99.90
50947;DHT22;36955;47.416;7.716;2022-09-17T02:10:05;8.70;99.90
50947;DHT22;36955;47.416;7.716;2022-09-17T02:12:33;8.60;99.90
50947;DHT22;36955;47.416;7.716;2022-09-17T02:15:02;8.60;99.90
50947;DHT22;36955;47.416;7.716;2022-09-17T02:18:17;8.60;99.90
50947;DHT22;36955;47.416;7.716;2022-09-17T02:20:46;8.60;99.90
50947;DHT22;36955;47.416;7.716;2022-09-17T02:23:17;8.60;99.90
50947;DHT22;36955;47.416;7.716;2022-09-17T02:25:52;8.60;99.90
50947;DHT22;36955;47.416;7.716;2022-09-17T02:28:26;8.60;99.90
50947;DHT22;36955;47.416;7.716;2022-09-17T02:30:57;8.60;99.90
50947;DHT22;36955;47.416;7.716;2022-09-17T02:33:24;8.60;99.90
50947;DHT22;36955;47.416;7.716;2022-09-17T02:35:51;8.60;99.90
50947;DHT22;36955;47.416;7.716;2022-09-17T02:38:22;8.50;99.90
50947;DHT22;36955;47.416;7.716;2022-09-17T02:40:53;8.50;99.90
50947;DHT22;36955;47.416;7.716;2022-09-17T02:43:53;8.50;99.90
50947;DHT22;36955;47.416;7.716;2022-09-17T02:46:35;8.50;99.90
50947;DHT22;36955;47.416;7.716;2022-09-17T02:49:37;8.40;99.90
50947;DHT22;36955;47.416;7.716;2022-09-17T02:57:51;8.40;99.90
50947;DHT22;36955;47.416;7.716;2022-09-17T03:00:21;8.40;99.90
50947;DHT22;36955;47.416;7.716;2022-09-17T03:03:02;8.40;99.90
50947;DHT22;36955;47.416;7.716;2022-09-17T03:05:31;8.40;99.90
50947;DHT22;36955;47.416;7.716;2022-09-17T03:07:58;8.40;99.90
50947;DHT22;36955;47.416;7.716;2022-09-17T03:10:25;8.40;99.90
50947;DHT22;36955;47.416;7.716;2022-09-17T03:12:52;8.50;99.90
50947;DHT22;36955;47.416;7.716;2022-09-17T03:15:18;8.40;99.90
50947;DHT22;36955;47.416;7.716;2022-09-17T03:17:44;8.40;99.90
50947;DHT22;36955;47.416;7.716;2022-09-17T03:20:11;8.40;99.90
50947;DHT22;36955;47.416;7.716;2022-09-17T03:22:37;8.40;99.90
50947;DHT22;36955;47.416;7.716;2022-09-17T03:25:03;8.40;99.90
50947;DHT22;36955;47.416;7.716;2022-09-17T03:27:29;8.40;99.90
50947;DHT22;36955;47.416;7.716;2022-09-17T03:29:55;8.40;99.90
50947;DHT22;36955;47.416;7.716;2022-09-17T03:32:21;8.40;99.90
50947;DHT22;36955;47.416;7.716;2022-09-17T03:34:47;8.40;99.90
50947;DHT22;36955;47.416;7.716;2022-09-17T03:37:13;8.30;99.90
50947;DHT22;36955;47.416;7.716;2022-09-17T03:39:39;8.30;99.90
50947;DHT22;36955;47.416;7.716;2022-09-17T03:42:05;8.20;99.90
50947;DHT22;36955;47.416;7.716;2022-09-17T03:44:31;8.20;99.90
50947;DHT22;36955;47.416;7.716;2022-09-17T03:46:57;8.20;99.90
50947;DHT22;36955;47.416;7.716;2022-09-17T03:49:23;8.20;99.90
50947;DHT22;36955;47.416;7.716;2022-09-17T03:51:49;8.10;99.90
50947;DHT22;36955;47.416;7.716;2022-09-17T03:54:15;8.10;99.90
50947;DHT22;36955;47.416;7.716;2022-09-17T03:56:41;8.00;99.90
50947;DHT22;36955;47.416;7.716;2022-09-17T03:59:08;8.00;99.90
50947;DHT22;36955;47.416;7.716;2022-09-17T04:01:34;8.00;99.90
50947;DHT22;36955;47.416;7.716;2022-09-17T04:04:00;7.90;99.90
50947;DHT22;36955;47.416;7.716;2022-09-17T04:06:26;7.90;99.90
50947;DHT22;36955;47.416;7.716;2022-09-17T04:08:52;7.90;99.90
50947;DHT22;36955;47.416;7.716;2022-09-17T04:11:19;7.90;99.90
50947;DHT22;36955;47.416;7.716;2022-09-17T04:13:45;7.90;99.90
50947;DHT22;36955;47.416;7.716;2022-09-17T04:16:11;7.90;99.90
50947;DHT22;36955;47.416;7.716;2022-09-17T04:18:37;7.90;99.90
50947;DHT22;36955;47.416;7.716;2022-09-17T04:21:03;7.80;99.90
50947;DHT22;36955;47.416;7.716;2022-09-17T04:23:29;7.80;99.90
50947;DHT22;36955;47.416;7.716;2022-09-17T04:25:55;7.80;99.90
50947;DHT22;36955;47.416;7.716;2022-09-17T04:28:21;7.70;99.90
50947;DHT22;36955;47.416;7.716;2022-09-17T04:30:47;7.70;99.90
50947;DHT22;36955;47.416;7.716;2022-09-17T04:33:13;7.70;99.90
50947;DHT22;36955;47.416;7.716;2022-09-17T04:35:40;7.70;99.90
50947;DHT22;36955;47.416;7.716;2022-09-17T04:38:07;7.70;99.90
50947;DHT22;36955;47.416;7.716;2022-09-17T04:40:34;7.60;99.90
50947;DHT22;36955;47.416;7.716;2022-09-17T04:43:00;7.60;99.90
50947;DHT22;36955;47.416;7.716;2022-09-17T04:45:26;7.60;99.90
50947;DHT22;36955;47.416;7.716;2022-09-17T04:47:52;7.60;99.90
50947;DHT22;36955;47.416;7.716;2022-09-17T04:50:18;7.50;99.90
50947;DHT22;36955;47.416;7.716;2022-09-17T04:52:45;7.50;99.90
50947;DHT22;36955;47.416;7.716;2022-09-17T04:55:12;7.50;99.90
50947;DHT22;36955;47.416;7.716;2022-09-17T04:57:38;7.50;99.90
50947;DHT22;36955;47.416;7.716;2022-09-17T05:00:05;7.50;99.90
50947;DHT22;36955;47.416;7.716;2022-09-17T05:02:32;7.50;99.90
50947;DHT22;36955;47.416;7.716;2022-09-17T05:04:58;7.50;99.90
50947;DHT22;36955;47.416;7.716;2022-09-17T05:07:24;7.50;99.90
50947;DHT22;36955;47.416;7.716;2022-09-17T05:09:50;7.50;99.90
50947;DHT22;36955;47.416;7.716;2022-09-17T05:12:16;7.50;99.90
50947;DHT22;36955;47.416;7.716;2022-09-17T05:14:42;7.50;99.90
50947;DHT22;36955;47.416;7.716;2022-09-17T05:17:08;7.50;99.90
50947;DHT22;36955;47.416;7.716;2022-09-17T05:19:34;7.50;99.90
50947;DHT22;36955;47.416;7.716;2022-09-17T05:22:00;7.50;99.90
50947;DHT22;36955;47.416;7.716;2022-09-17T05:24:26;7.60;99.90
50947;DHT22;36955;47.416;7.716;2022-09-17T05:26:52;7.60;99.90
50947;DHT22;36955;47.416;7.716;2022-09-17T05:29:18;7.60;99.90
50947;DHT22;36955;47.416;7.716;2022-09-17T05:31:44;7.60;99.90
50947;DHT22;36955;47.416;7.716;2022-09-17T05:34:10;7.50;99.90
50947;DHT22;36955;47.416;7.716;2022-09-17T05:36:36;7.50;99.90
50947;DHT22;36955;47.416;7.716;2022-09-17T05:39:02;7.60;99.90
50947;DHT22;36955;47.416;7.716;2022-09-17T05:41:28;7.50;99.90
50947;DHT22;36955;47.416;7.716;2022-09-17T05:43:54;7.60;99.90
50947;DHT22;36955;47.416;7.716;2022-09-17T05:46:21;7.50;99.90
50947;DHT22;36955;47.416;7.716;2022-09-17T05:48:47;7.50;99.90
50947;DHT22;36955;47.416;7.716;2022-09-17T05:51:13;7.60;99.90
50947;DHT22;36955;47.416;7.716;2022-09-17T05:53:39;7.50;99.90
50947;DHT22;36955;47.416;7.716;2022-09-17T05:56:05;7.60;99.90
50947;DHT22;36955;47.416;7.716;2022-09-17T05:58:31;7.60;99.90
50947;DHT22;36955;47.416;7.716;2022-09-17T06:01:00;7.60;99.90
50947;DHT22;36955;47.416;7.716;2022-09-17T06:03:26;7.60;99.90
50947;DHT22;36955;47.416;7.716;2022-09-17T06:05:55;7.60;99.90
50947;DHT22;36955;47.416;7.716;2022-09-17T06:08:21;7.70;99.90
50947;DHT22;36955;47.416;7.716;2022-09-17T06:10:47;7.70;99.90
50947;DHT22;36955;47.416;7.716;2022-09-17T06:13:15;7.70;99.90
50947;DHT22;36955;47.416;7.716;2022-09-17T06:15:41;7.70;99.90
50947;DHT22;36955;47.416;7.716;2022-09-17T06:18:07;7.70;99.90
50947;DHT22;36955;47.416;7.716;2022-09-17T06:20:33;7.80;99.90
50947;DHT22;36955;47.416;7.716;2022-09-17T06:22:59;7.70;99.90
50947;DHT22;36955;47.416;7.716;2022-09-17T06:25:25;7.70;99.90
50947;DHT22;36955;47.416;7.716;2022-09-17T06:27:51;7.80;99.90
50947;DHT22;36955;47.416;7.716;2022-09-17T06:30:17;7.80;99.90
50947;DHT22;36955;47.416;7.716;2022-09-17T06:32:43;7.80;99.90
50947;DHT22;36955;47.416;7.716;2022-09-17T06:35:10;7.80;99.90
50947;DHT22;36955;47.416;7.716;2022-09-17T06:37:36;7.80;99.90
50947;DHT22;36955;47.416;7.716;2022-09-17T06:40:02;7.90;99.90
50947;DHT22;36955;47.416;7.716;2022-09-17T06:42:28;7.90;99.90
50947;DHT22;36955;47.416;7.716;2022-09-17T06:44:54;7.90;99.90
50947;DHT22;36955;47.416;7.716;2022-09-17T06:47:23;7.80;99.90
50947;DHT22;36955;47.416;7.716;2022-09-17T06:49:49;7.90;99.90
50947;DHT22;36955;47.416;7.716;2022-09-17T06:52:15;7.90;99.90
50947;DHT22;36955;47.416;7.716;2022-09-17T06:54:41;8.00;99.90
50947;DHT22;36955;47.416;7.716;2022-09-17T06:57:07;8.00;99.90
50947;DHT22;36955;47.416;7.716;2022-09-17T06:59:33;8.00;99.90
50947;DHT22;36955;47.416;7.716;2022-09-17T07:01:59;8.00;99.90
50947;DHT22;36955;47.416;7.716;2022-09-17T07:04:25;8.00;99.90
50947;DHT22;36955;47.416;7.716;2022-09-17T07:06:51;8.00;99.90
50947;DHT22;36955;47.416;7.716;2022-09-17T07:09:17;8.00;99.90
50947;DHT22;36955;47.416;7.716;2022-09-17T07:11:43;8.00;99.90
50947;DHT22;36955;47.416;7.716;2022-09-17T07:14:10;8.00;99.90
50947;DHT22;36955;47.416;7.716;2022-09-17T07:16:36;8.00;99.90
50947;DHT22;36955;47.416;7.716;2022-09-17T07:19:03;7.90;99.90
50947;DHT22;36955;47.416;7.716;2022-09-17T07:21:29;8.00;99.90
50947;DHT22;36955;47.416;7.716;2022-09-17T07:23:55;7.90;99.90
50947;DHT22;36955;47.416;7.716;2022-09-17T07:26:21;8.00;99.90
50947;DHT22;36955;47.416;7.716;2022-09-17T07:28:47;8.00;99.90
50947;DHT22;36955;47.416;7.716;2022-09-17T07:31:13;8.00;99.90
50947;DHT22;36955;47.416;7.716;2022-09-17T07:33:40;8.10;99.90
50947;DHT22;36955;47.416;7.716;2022-09-17T07:36:09;8.10;99.90
50947;DHT22;36955;47.416;7.716;2022-09-17T07:38:35;8.10;99.90
50947;DHT22;36955;47.416;7.716;2022-09-17T07:41:12;8.10;99.90
50947;DHT22;36955;47.416;7.716;2022-09-17T07:43:40;8.20;99.90
50947;DHT22;36955;47.416;7.716;2022-09-17T07:46:07;8.30;99.90
50947;DHT22;36955;47.416;7.716;2022-09-17T07:48:37;8.40;99.90
50947;DHT22;36955;47.416;7.716;2022-09-17T07:51:03;8.40;99.90
50947;DHT22;36955;47.416;7.716;2022-09-17T07:53:29;8.50;99.90
50947;DHT22;36955;47.416;7.716;2022-09-17T07:55:57;8.50;99.90
50947;DHT22;36955;47.416;7.716;2022-09-17T07:58:29;8.60;99.90
50947;DHT22;36955;47.416;7.716;2022-09-17T08:01:03;8.70;99.90
50947;DHT22;36955;47.416;7.716;2022-09-17T08:03:30;8.90;99.90
50947;DHT22;36955;47.416;7.716;2022-09-17T08:06:07;9.00;99.90
50947;DHT22;36955;47.416;7.716;2022-09-17T08:08:34;9.10;99.90
50947;DHT22;36955;47.416;7.716;2022-09-17T08:13:31;9.20;99.90
50947;DHT22;36955;47.416;7.716;2022-09-17T08:16:00;9.30;99.90
50947;DHT22;36955;47.416;7.716;2022-09-17T08:18:27;9.30;99.90
50947;DHT22;36955;47.416;7.716;2022-09-17T08:20:57;9.20;99.90
50947;DHT22;36955;47.416;7.716;2022-09-17T08:23:24;9.20;99.90
50947;DHT22;36955;47.416;7.716;2022-09-17T08:25:58;9.30;99.90
50947;DHT22;36955;47.416;7.716;2022-09-17T08:28:26;9.30;99.90
50947;DHT22;36955;47.416;7.716;2022-09-17T08:30:53;9.30;99.90
50947;DHT22;36955;47.416;7.716;2022-09-17T08:33:20;9.40;99.90
50947;DHT22;36955;47.416;7.716;2022-09-17T08:35:55;9.40;99.90
50947;DHT22;36955;47.416;7.716;2022-09-17T08:38:21;9.30;99.90
50947;DHT22;36955;47.416;7.716;2022-09-17T08:43:29;9.30;99.90
50947;DHT22;36955;47.416;7.716;2022-09-17T08:45:57;9.30;99.90
50947;DHT22;36955;47.416;7.716;2022-09-17T08:48:30;9.40;99.90
50947;DHT22;36955;47.416;7.716;2022-09-17T08:51:01;9.40;99.90
50947;DHT22;36955;47.416;7.716;2022-09-17T08:54:02;9.40;99.90
50947;DHT22;36955;47.416;7.716;2022-09-17T08:56:33;9.40;99.90
50947;DHT22;36955;47.416;7.716;2022-09-17T08:59:28;9.40;99.90
50947;DHT22;36955;47.416;7.716;2022-09-17T09:05:19;9.50;99.90
50947;DHT22;36955;47.416;7.716;2022-09-17T09:07:57;9.60;99.90
50947;DHT22;36955;47.416;7.716;2022-09-17T09:10:33;9.80;99.90
50947;DHT22;36955;47.416;7.716;2022-09-17T09:13:00;9.80;99.90
50947;DHT22;36955;47.416;7.716;2022-09-17T09:15:46;9.90;99.90
50947;DHT22;36955;47.416;7.716;2022-09-17T09:18:22;9.90;99.90
50947;DHT22;36955;47.416;7.716;2022-09-17T09:23:44;9.80;99.90
50947;DHT22;36955;47.416;7.716;2022-09-17T09:26:19;9.80;99.90
50947;DHT22;36955;47.416;7.716;2022-09-17T09:33:52;10.00;99.90
50947;DHT22;36955;47.416;7.716;2022-09-17T09:36:18;10.10;99.90
50947;DHT22;36955;47.416;7.716;2022-09-17T09:38:54;10.20;99.90
50947;DHT22;36955;47.416;7.716;2022-09-17T09:41:39;10.20;99.90
50947;DHT22;36955;47.416;7.716;2022-09-17T09:44:12;10.10;99.90
50947;DHT22;36955;47.416;7.716;2022-09-17T09:47:01;9.90;99.90
50947;DHT22;36955;47.416;7.716;2022-09-17T09:49:59;9.80;99.90
50947;DHT22;36955;47.416;7.716;2022-09-17T09:58:10;9.50;99.90
50947;DHT22;36955;47.416;7.716;2022-09-17T10:00:39;9.50;99.90
50947;DHT22;36955;47.416;7.716;2022-09-17T10:03:15;9.50;99.90
50947;DHT22;36955;47.416;7.716;2022-09-17T10:05:56;9.60;99.90
50947;DHT22;36955;47.416;7.716;2022-09-17T10:08:22;9.80;99.90
50947;DHT22;36955;47.416;7.716;2022-09-17T10:10:54;9.90;99.90
50947;DHT22;36955;47.416;7.716;2022-09-17T10:13:21;9.90;99.90
50947;DHT22;36955;47.416;7.716;2022-09-17T10:15:47;10.00;99.90
50947;DHT22;36955;47.416;7.716;2022-09-17T10:18:18;10.10;99.90
50947;DHT22;36955;47.416;7.716;2022-09-17T10:21:02;10.40;99.90
50947;DHT22;36955;47.416;7.716;2022-09-17T10:23:31;10.50;99.90
50947;DHT22;36955;47.416;7.716;2022-09-17T10:26:01;10.60;99.90
50947;DHT22;36955;47.416;7.716;2022-09-17T10:28:32;10.70;99.90
50947;DHT22;36955;47.416;7.716;2022-09-17T10:31:05;10.80;99.90
50947;DHT22;36955;47.416;7.716;2022-09-17T10:33:33;11.10;99.90
50947;DHT22;36955;47.416;7.716;2022-09-17T10:36:04;11.30;99.90
50947;DHT22;36955;47.416;7.716;2022-09-17T10:38:37;11.40;99.90
50947;DHT22;36955;47.416;7.716;2022-09-17T10:41:20;11.50;99.90
50947;DHT22;36955;47.416;7.716;2022-09-17T10:43:47;11.50;99.90
50947;DHT22;36955;47.416;7.716;2022-09-17T10:46:25;11.50;99.90
50947;DHT22;36955;47.416;7.716;2022-09-17T10:49:08;11.40;99.90
50947;DHT22;36955;47.416;7.716;2022-09-17T10:51:36;11.20;99.90
50947;DHT22;36955;47.416;7.716;2022-09-17T10:56:35;10.70;99.90
50947;DHT22;36955;47.416;7.716;2022-09-17T11:08:19;10.50;99.90
50947;DHT22;36955;47.416;7.716;2022-09-17T11:11:09;10.50;99.90
50947;DHT22;36955;47.416;7.716;2022-09-17T11:13:55;10.50;99.90
50947;DHT22;36955;47.416;7.716;2022-09-17T11:16:39;10.50;99.90
50947;DHT22;36955;47.416;7.716;2022-09-17T11:27:52;10.60;99.90
50947;DHT22;36955;47.416;7.716;2022-09-17T11:30:22;10.70;99.90
50947;DHT22;36955;47.416;7.716;2022-09-17T11:33:11;10.70;99.90
50947;DHT22;36955;47.416;7.716;2022-09-17T11:35:59;10.60;99.90
50947;DHT22;36955;47.416;7.716;2022-09-17T11:38:40;10.60;99.90
50947;DHT22;36955;47.416;7.716;2022-09-17T11:41:19;10.70;99.90
50947;DHT22;36955;47.416;7.716;2022-09-17T11:43:52;10.70;99.90
50947;DHT22;36955;47.416;7.716;2022-09-17T11:46:33;10.80;99.90
50947;DHT22;36955;47.416;7.716;2022-09-17T11:49:10;10.80;99.90
50947;DHT22;36955;47.416;7.716;2022-09-17T11:51:43;10.90;99.90
50947;DHT22;36955;47.416;7.716;2022-09-17T11:54:23;10.90;99.90
50947;DHT22;36955;47.416;7.716;2022-09-17T11:56:53;10.90;99.90
50947;DHT22;36955;47.416;7.716;2022-09-17T11:59:42;10.90;99.90
50947;DHT22;36955;47.416;7.716;2022-09-17T12:02:20;10.90;99.90
50947;DHT22;36955;47.416;7.716;2022-09-17T12:07:39;11.20;99.90
50947;DHT22;36955;47.416;7.716;2022-09-17T12:12:31;11.30;99.90
50947;DHT22;36955;47.416;7.716;2022-09-17T12:15:06;11.30;99.90
50947;DHT22;36955;47.416;7.716;2022-09-17T12:17:43;11.30;99.90
50947;DHT22;36955;47.416;7.716;2022-09-17T12:20:27;11.40;99.90
50947;DHT22;36955;47.416;7.716;2022-09-17T12:22:57;11.40;99.90
50947;DHT22;36955;47.416;7.716;2022-09-17T12:25:30;11.40;99.90
50947;DHT22;36955;47.416;7.716;2022-09-17T12:28:20;11.50;99.90
50947;DHT22;36955;47.416;7.716;2022-09-17T12:30:57;11.60;99.90
50947;DHT22;36955;47.416;7.716;2022-09-17T12:33:43;11.80;99.90
50947;DHT22;36955;47.416;7.716;2022-09-17T12:39:00;11.90;99.90
50947;DHT22;36955;47.416;7.716;2022-09-17T12:44:25;11.90;99.90
50947;DHT22;36955;47.416;7.716;2022-09-17T12:55:27;11.20;99.90
50947;DHT22;36955;47.416;7.716;2022-09-17T13:00:27;11.20;99.90
50947;DHT22;36955;47.416;7.716;2022-09-17T13:03:19;11.20;99.90
50947;DHT22;36955;47.416;7.716;2022-09-17T13:08:56;11.40;99.90
50947;DHT22;36955;47.416;7.716;2022-09-17T13:20:37;11.80;99.90
50947;DHT22;36955;47.416;7.716;2022-09-17T13:23:05;11.70;99.90
50947;DHT22;36955;47.416;7.716;2022-09-17T13:25:32;11.50;99.90
50947;DHT22;36955;47.416;7.716;2022-09-17T13:28:09;11.40;99.90
50947;DHT22;36955;47.416;7.716;2022-09-17T13:30:59;11.60;99.90
50947;DHT22;36955;47.416;7.716;2022-09-17T13:33:58;11.80;99.90
50947;DHT22;36955;47.416;7.716;2022-09-17T13:36:44;12.00;99.90
50947;DHT22;36955;47.416;7.716;2022-09-17T13:44:41;12.00;99.90
50947;DHT22;36955;47.416;7.716;2022-09-17T13:47:17;12.00;99.90
50947;DHT22;36955;47.416;7.716;2022-09-17T13:49:49;11.80;99.90
50947;DHT22;36955;47.416;7.716;2022-09-17T13:55:44;11.80;99.90
50947;DHT22;36955;47.416;7.716;2022-09-17T14:35:45;12.80;99.90
50947;DHT22;36955;47.416;7.716;2022-09-17T14:38:32;13.00;99.90
50947;DHT22;36955;47.416;7.716;2022-09-17T14:43:49;13.40;99.90
50947;DHT22;36955;47.416;7.716;2022-09-17T14:49:22;13.70;99.90
50947;DHT22;36955;47.416;7.716;2022-09-17T14:51:56;13.80;99.90
50947;DHT22;36955;47.416;7.716;2022-09-17T14:54:26;13.90;99.90
50947;DHT22;36955;47.416;7.716;2022-09-17T14:56:59;13.60;99.90
50947;DHT22;36955;47.416;7.716;2022-09-17T14:59:46;13.30;99.90
50947;DHT22;36955;47.416;7.716;2022-09-17T15:02:39;13.00;99.90
50947;DHT22;36955;47.416;7.716;2022-09-17T15:05:22;12.70;99.90
50947;DHT22;36955;47.416;7.716;2022-09-17T15:07:49;12.50;99.90
50947;DHT22;36955;47.416;7.716;2022-09-17T15:10:18;12.30;99.90
50947;DHT22;36955;47.416;7.716;2022-09-17T15:12:46;12.20;99.90
50947;DHT22;36955;47.416;7.716;2022-09-17T15:15:19;12.20;99.90
50947;DHT22;36955;47.416;7.716;2022-09-17T15:17:47;12.20;99.90
50947;DHT22;36955;47.416;7.716;2022-09-17T15:20:19;12.20;99.90
50947;DHT22;36955;47.416;7.716;2022-09-17T15:23:08;12.10;99.90
50947;DHT22;36955;47.416;7.716;2022-09-17T15:25:40;12.10;99.90
50947;DHT22;36955;47.416;7.716;2022-09-17T15:28:35;12.00;99.90
50947;DHT22;36955;47.416;7.716;2022-09-17T15:31:08;11.90;99.90
50947;DHT22;36955;47.416;7.716;2022-09-17T15:33:37;11.90;99.90
50947;DHT22;36955;47.416;7.716;2022-09-17T15:36:36;11.80;99.90
50947;DHT22;36955;47.416;7.716;2022-09-17T15:39:28;11.70;99.90
50947;DHT22;36955;47.416;7.716;2022-09-17T15:41:56;11.70;99.90
50947;DHT22;36955;47.416;7.716;2022-09-17T15:44:23;11.50;99.90
50947;DHT22;36955;47.416;7.716;2022-09-17T15:46:51;11.40;99.90
50947;DHT22;36955;47.416;7.716;2022-09-17T15:49:30;11.30;99.90
50947;DHT22;36955;47.416;7.716;2022-09-17T15:52:26;11.20;99.90
50947;DHT22;36955;47.416;7.716;2022-09-17T15:54:52;11.10;99.90
50947;DHT22;36955;47.416;7.716;2022-09-17T15:57:20;11.20;99.90
50947;DHT22;36955;47.416;7.716;2022-09-17T15:59:47;11.40;99.90
50947;DHT22;36955;47.416;7.716;2022-09-17T16:02:29;11.60;99.90
50947;DHT22;36955;47.416;7.716;2022-09-17T16:07:39;11.80;99.90
50947;DHT22;36955;47.416;7.716;2022-09-17T16:10:07;11.70;99.90
50947;DHT22;36955;47.416;7.716;2022-09-17T16:12:33;11.60;99.90
50947;DHT22;36955;47.416;7.716;2022-09-17T16:15:00;11.40;99.90
50947;DHT22;36955;47.416;7.716;2022-09-17T16:17:30;11.30;99.90
50947;DHT22;36955;47.416;7.716;2022-09-17T16:19:56;11.20;99.90
50947;DHT22;36955;47.416;7.716;2022-09-17T16:22:22;11.10;99.90
50947;DHT22;36955;47.416;7.716;2022-09-17T16:24:48;11.00;99.90
50947;DHT22;36955;47.416;7.716;2022-09-17T16:27:27;11.00;99.90
50947;DHT22;36955;47.416;7.716;2022-09-17T16:30:01;11.00;99.90
50947;DHT22;36955;47.416;7.716;2022-09-17T16:32:27;10.90;99.90
50947;DHT22;36955;47.416;7.716;2022-09-17T16:34:53;10.90;99.90
50947;DHT22;36955;47.416;7.716;2022-09-17T16:37:19;10.90;99.90
50947;DHT22;36955;47.416;7.716;2022-09-17T16:39:45;10.90;99.90
50947;DHT22;36955;47.416;7.716;2022-09-17T16:42:11;10.90;99.90
50947;DHT22;36955;47.416;7.716;2022-09-17T16:44:37;10.90;99.90
50947;DHT22;36955;47.416;7.716;2022-09-17T16:47:03;10.90;99.90
50947;DHT22;36955;47.416;7.716;2022-09-17T16:49:29;10.80;99.90
50947;DHT22;36955;47.416;7.716;2022-09-17T16:51:55;10.70;99.90
50947;DHT22;36955;47.416;7.716;2022-09-17T16:54:21;10.70;99.90
50947;DHT22;36955;47.416;7.716;2022-09-17T16:56:47;10.70;99.90
50947;DHT22;36955;47.416;7.716;2022-09-17T16:59:13;10.60;99.90
50947;DHT22;36955;47.416;7.716;2022-09-17T17:01:39;10.60;99.90
50947;DHT22;36955;47.416;7.716;2022-09-17T17:04:05;10.50;99.90
50947;DHT22;36955;47.416;7.716;2022-09-17T17:06:32;10.60;99.90
50947;DHT22;36955;47.416;7.716;2022-09-17T17:08:58;10.50;99.90
50947;DHT22;36955;47.416;7.716;2022-09-17T17:11:24;10.50;99.90
50947;DHT22;36955;47.416;7.716;2022-09-17T17:13:50;10.50;99.90
50947;DHT22;36955;47.416;7.716;2022-09-17T17:16:16;10.50;99.90
50947;DHT22;36955;47.416;7.716;2022-09-17T17:18:43;10.40;99.90
50947;DHT22;36955;47.416;7.716;2022-09-17T17:21:10;10.40;99.90
50947;DHT22;36955;47.416;7.716;2022-09-17T17:23:37;10.40;99.90
50947;DHT22;36955;47.416;7.716;2022-09-17T17:26:03;10.40;99.90
50947;DHT22;36955;47.416;7.716;2022-09-17T17:28:34;10.40;99.90
50947;DHT22;36955;47.416;7.716;2022-09-17T17:31:00;10.40;99.90
50947;DHT22;36955;47.416;7.716;2022-09-17T17:33:26;10.40;99.90
50947;DHT22;36955;47.416;7.716;2022-09-17T17:35:52;10.40;99.90
50947;DHT22;36955;47.416;7.716;2022-09-17T17:38:19;10.40;99.90
50947;DHT22;36955;47.416;7.716;2022-09-17T17:40:45;10.30;99.90
50947;DHT22;36955;47.416;7.716;2022-09-17T17:43:11;10.30;99.90
50947;DHT22;36955;47.416;7.716;2022-09-17T17:45:38;10.20;99.90
50947;DHT22;36955;47.416;7.716;2022-09-17T17:48:04;10.20;99.90
50947;DHT22;36955;47.416;7.716;2022-09-17T17:50:32;10.20;99.90
50947;DHT22;36955;47.416;7.716;2022-09-17T17:52:58;10.20;99.90
50947;DHT22;36955;47.416;7.716;2022-09-17T17:55:24;10.10;99.90
50947;DHT22;36955;47.416;7.716;2022-09-17T17:57:56;10.10;99.90
50947;DHT22;36955;47.416;7.716;2022-09-17T18:00:22;10.10;99.90
50947;DHT22;36955;47.416;7.716;2022-09-17T18:02:49;10.10;99.90
50947;DHT22;36955;47.416;7.716;2022-09-17T18:05:15;10.00;99.90
50947;DHT22;36955;47.416;7.716;2022-09-17T18:07:41;10.00;99.90
50947;DHT22;36955;47.416;7.716;2022-09-17T18:10:07;10.00;99.90
50947;DHT22;36955;47.416;7.716;2022-09-17T18:12:33;10.00;99.90
50947;DHT22;36955;47.416;7.716;2022-09-17T18:14:59;10.00;99.90
50947;DHT22;36955;47.416;7.716;2022-09-17T18:17:27;10.00;99.90
50947;DHT22;36955;47.416;7.716;2022-09-17T18:19:53;10.00;99.90
50947;DHT22;36955;47.416;7.716;2022-09-17T18:22:19;10.00;99.90
50947;DHT22;36955;47.416;7.716;2022-09-17T18:24:45;10.00;99.90
50947;DHT22;36955;47.416;7.716;2022-09-17T18:27:11;10.00;99.90
50947;DHT22;36955;47.416;7.716;2022-09-17T18:29:37;10.00;99.90
50947;DHT22;36955;47.416;7.716;2022-09-17T18:32:04;10.00;99.90
50947;DHT22;36955;47.416;7.716;2022-09-17T18:34:30;10.00;99.90
50947;DHT22;36955;47.416;7.716;2022-09-17T18:36:56;9.90;99.90
50947;DHT22;36955;47.416;7.716;2022-09-17T18:39:22;9.90;99.90
50947;DHT22;36955;47.416;7.716;2022-09-17T18:41:48;9.80;99.90
50947;DHT22;36955;47.416;7.716;2022-09-17T18:44:14;9.80;99.90
50947;DHT22;36955;47.416;7.716;2022-09-17T18:46:40;9.80;99.90
50947;DHT22;36955;47.416;7.716;2022-09-17T18:49:06;9.80;99.90
50947;DHT22;36955;47.416;7.716;2022-09-17T18:51:32;9.70;99.90
50947;DHT22;36955;47.416;7.716;2022-09-17T18:53:59;9.70;99.90